createdAt,value
2019-01-30T00:01:15.922Z,74.93
2019-01-30T00:03:44.989Z,75.04
2019-01-30T00:06:14.036Z,75.21
2019-01-30T00:08:43.118Z,75.37
2019-01-30T00:11:12.192Z,75.44
2019-01-30T00:13:41.250Z,75.53
2019-01-30T00:16:10.343Z,75.59
2019-01-30T00:18:39.400Z,75.61
2019-01-30T00:21:08.461Z,75.56
2019-01-30T00:23:37.568Z,75.58
2019-01-30T00:26:06.616Z,75.64
2019-01-30T00:28:35.677Z,75.70
2019-01-30T00:31:04.752Z,75.73
2019-01-30T00:33:33.812Z,75.79
2019-01-30T00:36:02.862Z,75.75
2019-01-30T00:38:31.944Z,75.77
2019-01-30T00:41:00.998Z,75.76
2019-01-30T00:43:30.054Z,75.83
2019-01-30T00:45:59.152Z,75.85
2019-01-30T00:48:28.204Z,75.86
2019-01-30T00:50:57.397Z,75.88
2019-01-30T00:53:26.421Z,75.83
2019-01-30T00:55:55.479Z,75.99
2019-01-30T00:58:24.539Z,76.08
2019-01-30T01:00:53.624Z,76.33
2019-01-30T01:03:22.683Z,76.43
2019-01-30T01:05:51.734Z,76.29
2019-01-30T01:08:20.864Z,76.36
2019-01-30T01:10:49.927Z,76.49
2019-01-30T01:13:18.990Z,76.57
2019-01-30T01:15:48.076Z,76.46
2019-01-30T01:18:17.147Z,76.48
2019-01-30T01:20:46.204Z,76.47
2019-01-30T01:23:15.293Z,76.47
2019-01-30T01:25:44.349Z,76.46
2019-01-30T01:28:13.411Z,76.56
2019-01-30T01:30:42.543Z,76.77
2019-01-30T01:33:11.601Z,76.73
2019-01-30T01:35:40.659Z,76.91
2019-01-30T01:38:09.736Z,76.95
2019-01-30T01:40:38.800Z,77.15
2019-01-30T01:43:07.859Z,76.98
2019-01-30T01:45:36.946Z,76.93
2019-01-30T01:48:06.002Z,77.03
2019-01-30T01:50:35.071Z,76.88
2019-01-30T01:53:04.205Z,76.93
2019-01-30T01:55:33.255Z,77.13
2019-01-30T01:58:02.309Z,77.02
2019-01-30T02:00:35.500Z,77.02
2019-01-30T02:03:00.445Z,76.99
2019-01-30T02:05:29.508Z,76.95
2019-01-30T02:07:58.597Z,76.92
2019-01-30T02:10:27.650Z,76.89
2019-01-30T02:12:56.716Z,76.80
2019-01-30T02:15:25.834Z,76.77
2019-01-30T02:17:54.887Z,76.75
2019-01-30T02:20:23.944Z,76.71
2019-01-30T02:22:53.029Z,76.65
2019-01-30T02:25:22.090Z,76.58
2019-01-30T02:27:51.145Z,76.56
2019-01-30T02:30:21.084Z,76.52
2019-01-30T02:32:50.139Z,76.53
2019-01-30T02:35:19.203Z,76.51
2019-01-30T02:37:48.307Z,76.47
2019-01-30T02:40:17.365Z,76.40
2019-01-30T02:42:46.423Z,76.38
2019-01-30T02:45:15.803Z,76.32
2019-01-30T02:47:44.812Z,76.12
2019-01-30T02:50:13.878Z,76.20
2019-01-30T02:52:42.956Z,76.21
2019-01-30T02:55:12.009Z,76.08
2019-01-30T02:57:41.070Z,76.04
2019-01-30T03:00:15.893Z,75.77
2019-01-30T03:02:44.951Z,75.61
2019-01-30T03:05:14.010Z,75.53
2019-01-30T03:07:43.086Z,75.56
2019-01-30T03:10:13.027Z,75.48
2019-01-30T03:12:42.091Z,75.55
2019-01-30T03:15:11.183Z,75.52
2019-01-30T03:17:40.253Z,75.58
2019-01-30T03:20:09.308Z,75.61
2019-01-30T03:22:38.411Z,75.66
2019-01-30T03:25:08.199Z,75.69
2019-01-30T03:27:37.252Z,75.79
2019-01-30T03:30:06.345Z,75.86
2019-01-30T03:32:35.416Z,75.91
2019-01-30T03:35:04.470Z,75.93
2019-01-30T03:37:33.562Z,76.01
2019-01-30T03:40:02.601Z,76.09
2019-01-30T03:42:31.661Z,76.12
2019-01-30T03:45:00.768Z,76.12
2019-01-30T03:47:29.817Z,76.13
2019-01-30T03:49:58.884Z,76.15
2019-01-30T03:52:28.045Z,76.20
2019-01-30T03:54:57.109Z,76.22
2019-01-30T03:57:28.735Z,76.26
2019-01-30T03:59:55.244Z,76.25
2019-01-30T04:02:24.298Z,76.27
2019-01-30T04:04:53.354Z,76.22
2019-01-30T04:07:22.460Z,76.21
2019-01-30T04:09:51.526Z,76.22
2019-01-30T04:12:20.589Z,76.14
2019-01-30T04:14:49.673Z,76.08
2019-01-30T04:17:18.729Z,76.06
2019-01-30T04:19:47.789Z,76.05
2019-01-30T04:22:16.884Z,75.99
2019-01-30T04:24:45.943Z,75.97
2019-01-30T04:27:15.007Z,75.97
2019-01-30T04:29:44.169Z,76.05
2019-01-30T04:32:13.224Z,76.15
2019-01-30T04:34:42.272Z,76.23
2019-01-30T04:37:11.459Z,76.38
2019-01-30T04:39:40.522Z,76.45
2019-01-30T04:42:09.587Z,76.59
2019-01-30T04:44:38.678Z,76.64
2019-01-30T04:47:08.755Z,76.71
2019-01-30T04:49:37.813Z,76.73
2019-01-30T04:52:06.914Z,76.84
2019-01-30T04:54:36.100Z,76.85
2019-01-30T04:57:05.111Z,76.92
2019-01-30T04:59:34.186Z,77.17
2019-01-30T05:02:03.238Z,77.06
2019-01-30T05:04:32.290Z,76.97
2019-01-30T05:07:03.396Z,76.97
2019-01-30T05:09:32.446Z,76.98
2019-01-30T05:12:01.497Z,77.01
2019-01-30T05:14:30.698Z,77.05
2019-01-30T05:16:59.873Z,77.06
2019-01-30T05:19:28.802Z,77.11
2019-01-30T05:21:57.895Z,77.21
2019-01-30T05:24:26.953Z,77.18
2019-01-30T05:26:56.010Z,77.17
2019-01-30T05:29:25.146Z,77.22
2019-01-30T05:32:00.959Z,77.40
2019-01-30T05:34:23.222Z,77.37
2019-01-30T05:36:57.680Z,77.49
2019-01-30T05:39:26.737Z,77.42
2019-01-30T05:41:55.797Z,77.49
2019-01-30T05:44:24.883Z,77.63
2019-01-30T05:46:53.938Z,77.54
2019-01-30T05:49:22.996Z,77.60
2019-01-30T05:51:52.093Z,77.73
2019-01-30T05:54:21.164Z,77.72
2019-01-30T05:56:50.241Z,77.69
2019-01-30T05:59:19.407Z,77.63
2019-01-30T06:01:48.480Z,77.62
2019-01-30T06:04:17.534Z,77.71
2019-01-30T06:06:46.623Z,77.85
2019-01-30T06:09:15.679Z,78.11
2019-01-30T06:11:44.743Z,78.18
2019-01-30T06:14:13.917Z,78.26
2019-01-30T06:16:42.902Z,78.08
2019-01-30T06:19:11.967Z,78.20
2019-01-30T06:21:41.063Z,78.04
2019-01-30T06:24:10.112Z,77.95
2019-01-30T06:26:39.184Z,77.88
2019-01-30T06:29:08.275Z,77.86
2019-01-30T06:31:37.336Z,78.15
2019-01-30T06:34:06.402Z,78.06
2019-01-30T06:36:35.500Z,78.16
2019-01-30T06:39:04.587Z,78.26
2019-01-30T06:41:33.637Z,78.23
2019-01-30T06:44:02.760Z,78.36
2019-01-30T06:46:31.812Z,78.61
2019-01-30T06:49:00.861Z,78.40
2019-01-30T06:51:29.964Z,78.59
2019-01-30T06:53:59.032Z,78.49
2019-01-30T06:56:28.096Z,78.17
2019-01-30T06:58:57.256Z,78.05
2019-01-30T07:01:26.319Z,78.02
2019-01-30T07:03:55.476Z,77.93
2019-01-30T07:06:24.510Z,77.92
2019-01-30T07:08:53.561Z,77.97
2019-01-30T07:11:22.609Z,77.93
2019-01-30T07:13:51.703Z,77.87
2019-01-30T07:16:20.813Z,77.79
2019-01-30T07:18:49.899Z,77.61
2019-01-30T07:21:18.990Z,77.42
2019-01-30T07:23:48.089Z,77.30
2019-01-30T07:26:17.303Z,77.14
2019-01-30T07:28:46.409Z,77.08
2019-01-30T07:31:15.468Z,76.76
2019-01-30T07:33:44.515Z,76.61
2019-01-30T07:36:13.597Z,75.95
2019-01-30T07:38:42.653Z,75.47
2019-01-30T07:41:11.713Z,75.21
2019-01-30T07:43:40.806Z,74.60
2019-01-30T07:46:09.867Z,74.28
2019-01-30T07:48:38.929Z,73.59
2019-01-30T07:51:08.028Z,73.27
2019-01-30T07:53:37.097Z,72.80
2019-01-30T07:56:06.164Z,73.43
2019-01-30T07:58:35.310Z,73.30
2019-01-30T08:01:04.335Z,72.82
2019-01-30T08:03:33.380Z,72.49
2019-01-30T08:06:02.502Z,71.80
2019-01-30T08:08:31.556Z,71.91
2019-01-30T08:11:00.606Z,71.93
2019-01-30T08:13:29.748Z,70.69
2019-01-30T08:15:58.805Z,70.47
2019-01-30T08:18:27.865Z,70.17
2019-01-30T08:20:56.965Z,70.49
2019-01-30T08:23:26.343Z,70.57
2019-01-30T08:25:55.285Z,69.64
2019-01-30T08:28:24.195Z,68.61
2019-01-30T08:30:53.383Z,68.73
2019-01-30T08:33:22.266Z,68.75
2019-01-30T08:35:51.361Z,69.16
2019-01-30T08:38:20.422Z,69.52
2019-01-30T08:40:49.479Z,69.64
2019-01-30T08:43:18.566Z,69.56
2019-01-30T08:45:47.615Z,68.95
2019-01-30T08:48:16.671Z,68.72
2019-01-30T08:50:45.748Z,68.85
2019-01-30T08:53:14.806Z,68.41
2019-01-30T08:55:43.945Z,68.23
2019-01-30T08:58:12.977Z,68.18
2019-01-30T09:00:42.026Z,68.20
2019-01-30T09:03:15.043Z,68.18
2019-01-30T09:05:40.190Z,68.29
2019-01-30T09:08:09.250Z,68.35
2019-01-30T09:10:38.297Z,68.36
2019-01-30T09:13:07.383Z,68.42
2019-01-30T09:15:36.473Z,68.20
2019-01-30T09:18:05.537Z,68.28
2019-01-30T09:20:34.639Z,68.43
2019-01-30T09:23:03.695Z,68.20
2019-01-30T09:25:32.776Z,68.02
2019-01-30T09:28:02.207Z,68.11
2019-01-30T09:30:34.011Z,68.19
2019-01-30T09:33:03.163Z,68.39
2019-01-30T09:35:32.185Z,68.12
2019-01-30T09:38:01.279Z,68.20
2019-01-30T09:40:30.390Z,68.17
2019-01-30T09:42:59.455Z,68.26
2019-01-30T09:45:28.512Z,68.30
2019-01-30T09:47:57.608Z,68.02
2019-01-30T09:50:26.649Z,68.14
2019-01-30T09:52:55.709Z,68.16
2019-01-30T09:55:24.796Z,68.19
2019-01-30T09:57:53.838Z,68.12
2019-01-30T10:00:25.753Z,68.16
2019-01-30T10:02:54.807Z,68.14
2019-01-30T10:05:23.856Z,68.31
2019-01-30T10:07:55.015Z,68.50
2019-01-30T10:10:21.987Z,68.62
2019-01-30T10:12:51.037Z,68.71
2019-01-30T10:15:20.121Z,68.76
2019-01-30T10:17:49.169Z,68.70
2019-01-30T10:20:20.145Z,68.63
2019-01-30T10:22:49.298Z,68.68
2019-01-30T10:25:18.358Z,68.79
2019-01-30T10:27:47.420Z,68.73
2019-01-30T10:30:16.539Z,68.79
2019-01-30T10:32:45.607Z,68.91
2019-01-30T10:35:14.671Z,68.85
2019-01-30T10:37:43.802Z,68.62
2019-01-30T10:40:12.882Z,68.57
2019-01-30T10:42:42.837Z,68.41
2019-01-30T10:45:12.076Z,67.75
2019-01-30T10:47:41.130Z,67.68
2019-01-30T10:50:11.015Z,67.54
2019-01-30T10:52:40.113Z,67.54
2019-01-30T10:55:09.995Z,67.25
2019-01-30T10:57:39.056Z,66.79
2019-01-30T11:00:08.138Z,66.54
2019-01-30T11:02:37.203Z,66.59
2019-01-30T11:05:06.271Z,66.67
2019-01-30T11:07:35.641Z,66.63
2019-01-30T11:10:04.698Z,66.49
2019-01-30T11:12:33.762Z,66.56
2019-01-30T11:15:03.368Z,66.43
2019-01-30T11:17:32.204Z,66.49
2019-01-30T11:20:01.271Z,66.28
2019-01-30T11:22:30.366Z,66.26
2019-01-30T11:24:59.430Z,66.24
2019-01-30T11:27:28.487Z,66.26
2019-01-30T11:29:57.604Z,66.11
2019-01-30T11:32:26.680Z,65.92
2019-01-30T11:34:55.739Z,66.06
2019-01-30T11:37:24.823Z,66.05
2019-01-30T11:39:53.890Z,66.22
2019-01-30T11:42:23.019Z,66.06
2019-01-30T11:44:52.925Z,66.44
2019-01-30T11:47:21.994Z,66.57
2019-01-30T11:49:51.061Z,66.72
2019-01-30T11:52:20.498Z,67.09
2019-01-30T11:54:49.556Z,66.97
2019-01-30T11:57:18.622Z,67.18
2019-01-30T11:59:47.710Z,67.31
2019-01-30T12:02:16.786Z,67.41
2019-01-30T12:04:45.847Z,67.33
2019-01-30T12:07:14.940Z,67.36
2019-01-30T12:09:43.998Z,67.48
2019-01-30T12:12:13.063Z,67.43
2019-01-30T12:14:42.175Z,67.31
2019-01-30T12:17:11.235Z,67.52
2019-01-30T12:19:40.293Z,67.48
2019-01-30T12:22:09.376Z,67.71
2019-01-30T12:24:38.426Z,67.80
2019-01-30T12:27:07.494Z,67.87
2019-01-30T12:29:36.574Z,67.77
2019-01-30T12:32:05.642Z,67.42
2019-01-30T12:34:34.697Z,67.18
2019-01-30T12:37:03.802Z,67.01
2019-01-30T12:39:32.870Z,67.26
2019-01-30T12:42:01.919Z,67.32
2019-01-30T12:44:33.323Z,67.34
2019-01-30T12:47:00.075Z,67.25
2019-01-30T12:49:29.140Z,66.94
2019-01-30T12:51:58.225Z,66.90
2019-01-30T12:54:27.298Z,66.74
2019-01-30T12:56:56.364Z,66.65
2019-01-30T12:59:25.478Z,66.80
2019-01-30T13:01:54.540Z,66.84
2019-01-30T13:04:23.608Z,66.73
2019-01-30T13:06:52.698Z,66.75
2019-01-30T13:09:21.758Z,66.79
2019-01-30T13:11:50.814Z,66.93
2019-01-30T13:14:19.897Z,67.13
2019-01-30T13:16:48.952Z,67.03
2019-01-30T13:19:18.013Z,66.99
2019-01-30T13:21:47.116Z,67.13
2019-01-30T13:24:16.171Z,67.10
2019-01-30T13:26:45.240Z,67.27
2019-01-30T13:29:14.335Z,67.13
2019-01-30T13:31:43.401Z,67.22
2019-01-30T13:34:12.448Z,67.11
2019-01-30T13:36:41.547Z,67.12
2019-01-30T13:39:10.612Z,66.90
2019-01-30T13:41:39.679Z,66.99
2019-01-30T13:44:08.827Z,67.05
2019-01-30T13:46:37.869Z,67.08
2019-01-30T13:49:06.939Z,67.13
2019-01-30T13:51:36.035Z,67.19
2019-01-30T13:54:05.071Z,67.10
2019-01-30T13:56:34.135Z,67.03
2019-01-30T13:59:03.221Z,67.88
2019-01-30T14:01:32.287Z,68.75
2019-01-30T14:04:01.353Z,69.04
2019-01-30T14:06:30.919Z,69.21
2019-01-30T14:08:59.964Z,69.37
2019-01-30T14:11:29.035Z,69.77
2019-01-30T14:13:58.116Z,69.69
2019-01-30T14:16:27.583Z,69.41
2019-01-30T14:18:56.567Z,69.27
2019-01-30T14:21:25.673Z,69.14
2019-01-30T14:23:54.770Z,68.79
2019-01-30T14:26:23.838Z,68.72
2019-01-30T14:28:52.946Z,68.62
2019-01-30T14:31:22.031Z,68.79
2019-01-30T14:33:51.066Z,68.81
2019-01-30T14:36:20.242Z,68.94
2019-01-30T14:38:49.335Z,68.99
2019-01-30T14:41:18.375Z,69.04
2019-01-30T14:43:47.463Z,69.16
2019-01-30T14:46:16.517Z,69.31
2019-01-30T14:48:46.343Z,69.43
2019-01-30T14:51:16.381Z,69.63
2019-01-30T14:53:45.930Z,69.77
2019-01-30T14:56:14.866Z,70.07
2019-01-30T14:58:43.981Z,70.13
2019-01-30T15:01:13.050Z,70.30
2019-01-30T15:03:42.119Z,70.46
2019-01-30T15:06:11.298Z,70.68
2019-01-30T15:08:40.342Z,70.79
2019-01-30T15:11:09.510Z,71.01
2019-01-30T15:13:38.758Z,71.07
2019-01-30T15:16:07.822Z,71.26
2019-01-30T15:18:36.934Z,71.38
2019-01-30T15:21:05.989Z,71.55
2019-01-30T15:23:35.086Z,71.74
2019-01-30T15:26:04.189Z,71.91
2019-01-30T15:28:33.291Z,72.10
2019-01-30T15:31:02.356Z,72.21
2019-01-30T15:33:31.427Z,72.34
2019-01-30T15:36:00.537Z,72.41
2019-01-30T15:38:29.606Z,72.50
2019-01-30T15:40:58.674Z,72.57
2019-01-30T15:43:27.762Z,72.70
2019-01-30T15:45:56.825Z,72.77
2019-01-30T15:48:25.881Z,72.87
2019-01-30T15:50:55.165Z,73.07
2019-01-30T15:53:24.128Z,73.67
2019-01-30T15:55:53.205Z,74.68
2019-01-30T15:58:22.315Z,74.44
2019-01-30T16:00:51.415Z,74.38
2019-01-30T16:03:20.502Z,74.65
2019-01-30T16:05:49.635Z,74.90
2019-01-30T16:08:18.699Z,74.98
2019-01-30T16:10:47.777Z,75.42
2019-01-30T16:13:16.872Z,75.93
2019-01-30T16:15:45.995Z,75.47
2019-01-30T16:18:15.072Z,75.36
2019-01-30T16:20:44.254Z,75.41
2019-01-30T16:23:13.321Z,74.93
2019-01-30T16:25:42.398Z,75.14
2019-01-30T16:28:11.493Z,75.52
2019-01-30T16:30:42.245Z,75.85
2019-01-30T16:33:09.891Z,76.05
2019-01-30T16:35:38.989Z,76.03
2019-01-30T16:38:08.265Z,76.19
2019-01-30T16:40:37.285Z,76.24
2019-01-30T16:43:06.809Z,75.95
2019-01-30T16:45:35.882Z,76.28
2019-01-30T16:48:04.966Z,76.73
2019-01-30T16:50:34.536Z,77.25
2019-01-30T16:53:03.424Z,77.71
2019-01-30T16:55:32.490Z,77.57
2019-01-30T16:58:01.585Z,77.30
2019-01-30T17:00:30.649Z,77.22
2019-01-30T17:02:59.726Z,77.02
2019-01-30T17:05:28.858Z,76.90
2019-01-30T17:07:57.929Z,76.66
2019-01-30T17:10:27.001Z,76.47
2019-01-30T17:12:56.081Z,76.43
2019-01-30T17:15:25.198Z,76.24
2019-01-30T17:17:54.194Z,76.27
2019-01-30T17:20:23.288Z,76.20
2019-01-30T17:22:52.361Z,76.21
2019-01-30T17:25:21.414Z,76.12
2019-01-30T17:27:50.538Z,76.02
2019-01-30T17:30:20.423Z,76.02
2019-01-30T17:32:49.488Z,75.83
2019-01-30T17:35:18.976Z,75.62
2019-01-30T17:37:47.971Z,75.25
2019-01-30T17:40:17.035Z,74.98
2019-01-30T17:42:46.125Z,74.72
2019-01-30T17:45:15.189Z,74.56
2019-01-30T17:47:44.252Z,74.27
2019-01-30T17:50:13.685Z,74.01
2019-01-30T17:52:42.748Z,73.76
2019-01-30T17:55:12.788Z,73.73
2019-01-30T17:57:41.886Z,73.53
2019-01-30T18:00:12.764Z,73.40
2019-01-30T18:02:41.845Z,73.37
2019-01-30T18:05:10.949Z,73.34
2019-01-30T18:07:40.018Z,73.38
2019-01-30T18:10:09.859Z,73.27
2019-01-30T18:12:39.139Z,73.20
2019-01-30T18:15:08.217Z,73.24
2019-01-30T18:17:37.290Z,73.18
2019-01-30T18:20:08.052Z,73.25
2019-01-30T18:22:35.712Z,73.27
2019-01-30T18:25:04.801Z,73.31
2019-01-30T18:27:33.957Z,73.38
2019-01-30T18:30:03.031Z,73.38
2019-01-30T18:32:32.108Z,73.42
2019-01-30T18:35:01.232Z,73.44
2019-01-30T18:37:30.302Z,73.55
2019-01-30T18:39:59.390Z,73.55
2019-01-30T18:42:28.495Z,73.62
2019-01-30T18:44:57.583Z,73.65
2019-01-30T18:47:26.669Z,73.80
2019-01-30T18:49:55.773Z,73.78
2019-01-30T18:52:24.856Z,73.77
2019-01-30T18:54:53.951Z,73.88
2019-01-30T18:57:23.975Z,73.92
2019-01-30T18:59:53.051Z,73.99
2019-01-30T19:02:22.532Z,73.98
2019-01-30T19:04:51.972Z,74.00
2019-01-30T19:07:20.964Z,73.98
2019-01-30T19:09:50.040Z,74.04
2019-01-30T19:12:19.156Z,74.08
2019-01-30T19:14:48.238Z,74.32
2019-01-30T19:17:17.317Z,74.16
2019-01-30T19:19:46.448Z,74.27
2019-01-30T19:22:15.861Z,74.39
2019-01-30T19:24:44.867Z,74.44
2019-01-30T19:27:13.975Z,74.34
2019-01-30T19:29:43.067Z,74.47
2019-01-30T19:32:12.138Z,74.74
2019-01-30T19:34:41.262Z,74.70
2019-01-30T19:37:10.336Z,74.73
2019-01-30T19:39:39.423Z,74.71
2019-01-30T19:42:08.566Z,74.60
2019-01-30T19:44:37.655Z,74.84
2019-01-30T19:47:06.754Z,74.89
2019-01-30T19:49:35.871Z,74.89
2019-01-30T19:52:04.948Z,74.88
2019-01-30T19:54:34.038Z,75.01
2019-01-30T19:57:03.147Z,75.13
2019-01-30T20:02:37.106Z,75.45
2019-01-30T20:20:39.829Z,75.59
2019-01-30T20:23:08.980Z,75.58
2019-01-30T20:25:38.130Z,75.73
2019-01-30T20:28:08.237Z,75.89
2019-01-30T20:30:36.552Z,75.96
2019-01-30T20:33:07.060Z,76.19
2019-01-30T20:35:35.164Z,76.50
2019-01-30T20:38:05.156Z,76.25
2019-01-30T20:40:33.465Z,75.99
2019-01-30T20:43:02.789Z,75.84
2019-01-30T20:45:33.757Z,76.04
2019-01-30T20:48:01.433Z,76.20
2019-01-30T20:50:31.890Z,76.04
2019-01-30T20:53:00.787Z,76.22
2019-01-30T20:55:30.273Z,75.99
2019-01-30T20:57:59.271Z,76.27
2019-01-30T21:00:29.102Z,76.10
2019-01-30T21:02:58.756Z,76.17
2019-01-30T21:05:26.536Z,76.26
2019-01-30T21:07:55.700Z,76.31
2019-01-30T21:10:25.890Z,76.26
2019-01-30T21:12:55.947Z,76.59
2019-01-30T21:15:25.085Z,76.47
2019-01-30T21:17:53.400Z,76.44
2019-01-30T21:20:22.846Z,76.58
2019-01-30T21:23:13.399Z,76.82
2019-01-30T21:25:51.336Z,76.74
2019-01-30T21:34:32.294Z,77.20
2019-01-30T21:42:50.733Z,77.28
2019-01-30T21:45:19.723Z,77.01
2019-01-30T21:56:21.758Z,77.01
2019-01-30T21:58:51.353Z,76.64
2019-01-30T22:01:20.752Z,76.66
2019-01-30T22:03:50.512Z,76.58
2019-01-30T22:09:20.940Z,76.30
2019-01-30T22:12:06.723Z,76.18
2019-01-30T22:15:06.465Z,76.24
2019-01-30T22:23:51.311Z,75.97
